Time;durP1;ratioP1;P1;durP2;ratioP2;P2;SDS_P1;SDS_P2;PMS_P1;PMS_P2;Temp;Humidity;BMP_temperature;BMP_pressure;BME280_temperature;BME280_humidity;BME280_pressure;Samples;Min_cycle;Max_cycle;Signal;HPM_P1;HPM_P2
2022/03/06 00:02:09;;;;;;;28.25;17.13;;;2.10;99.90;;;;;;4352475;28;10000709;-68
2022/03/06 00:04:35;;;;;;;28.02;17.73;;;2.10;99.90;;;;;;5035256;28;20121;-70
2022/03/06 00:07:01;;;;;;;30.27;16.70;;;2.10;99.90;;;;;;5033715;28;20025;-68
2022/03/06 00:09:26;;;;;;;28.98;17.10;;;2.00;99.90;;;;;;5037819;28;20039;-70
2022/03/06 00:11:53;;;;;;;26.83;17.27;;;2.00;99.90;;;;;;5027992;28;20515;-70
2022/03/06 00:14:19;;;;;;;29.48;18.35;;;2.00;99.90;;;;;;5036088;28;20629;-68
2022/03/06 00:16:45;;;;;;;30.33;17.98;;;2.00;99.90;;;;;;5036715;28;20044;-68
2022/03/06 00:19:11;;;;;;;31.50;17.85;;;2.00;99.90;;;;;;5039451;28;20017;-70
2022/03/06 00:21:37;;;;;;;34.15;18.58;;;2.00;99.90;;;;;;5039823;28;20497;-70
2022/03/06 00:24:03;;;;;;;27.90;16.98;;;1.90;99.90;;;;;;5037950;28;20036;-70
2022/03/06 00:26:29;;;;;;;30.25;18.55;;;1.90;99.90;;;;;;5030075;28;20401;-70
2022/03/06 00:28:55;;;;;;;30.90;18.48;;;1.90;99.90;;;;;;5035555;28;20033;-70
2022/03/06 00:31:23;;;;;;;30.40;18.05;;;1.90;99.90;;;;;;5037080;28;20053;-70
2022/03/06 00:33:49;;;;;;;31.52;18.50;;;1.90;99.90;;;;;;5031594;28;20515;-71
2022/03/06 00:36:15;;;;;;;30.77;18.52;;;1.90;99.90;;;;;;5032774;28;20496;-70
2022/03/06 00:38:40;;;;;;;35.88;19.55;;;1.80;99.90;;;;;;5039208;28;20025;-70
2022/03/06 00:41:06;;;;;;;32.75;19.15;;;1.80;99.90;;;;;;5049938;28;20024;-71
2022/03/06 00:43:32;;;;;;;32.47;19.05;;;1.80;99.90;;;;;;5038327;28;20140;-70
2022/03/06 00:45:57;;;;;;;33.28;19.63;;;1.80;99.90;;;;;;5039727;28;20503;-69
2022/03/06 00:48:23;;;;;;;31.67;18.92;;;1.70;99.90;;;;;;5034311;28;20071;-69
2022/03/06 00:50:49;;;;;;;32.35;18.70;;;1.70;99.90;;;;;;5035364;28;20091;-70
2022/03/06 00:53:15;;;;;;;35.40;19.35;;;1.70;99.90;;;;;;5032956;28;20029;-70
2022/03/06 00:55:40;;;;;;;31.23;19.42;;;1.70;99.90;;;;;;5033220;28;20013;-69
2022/03/06 00:58:06;;;;;;;33.70;18.80;;;1.70;99.90;;;;;;5039321;28;20044;-69
2022/03/06 01:00:35;;;;;;;32.65;20.35;;;1.60;99.90;;;;;;5035959;28;20025;-69
2022/03/06 01:03:02;;;;;;;32.78;19.58;;;1.80;99.90;;;;;;5036430;28;20577;-69
2022/03/06 01:05:28;;;;;;;33.78;20.05;;;1.70;99.90;;;;;;5036160;28;20025;-70
2022/03/06 01:07:53;;;;;;;37.35;21.05;;;1.60;99.90;;;;;;5036690;28;20378;-69
2022/03/06 01:10:19;;;;;;;36.70;20.80;;;1.60;99.90;;;;;;5039237;28;20021;-69
2022/03/06 01:12:45;;;;;;;35.55;20.58;;;1.50;99.90;;;;;;5035703;28;20037;-69
2022/03/06 01:15:11;;;;;;;33.95;19.40;;;1.50;99.90;;;;;;5037241;28;20035;-70
2022/03/06 01:17:36;;;;;;;34.83;20.60;;;1.50;99.90;;;;;;5036850;28;20043;-69
2022/03/06 01:20:03;;;;;;;33.78;20.13;;;1.40;99.90;;;;;;5040463;28;20624;-69
2022/03/06 01:22:29;;;;;;;34.75;19.27;;;1.40;99.90;;;;;;5041405;28;20044;-69
2022/03/06 01:24:54;;;;;;;33.20;20.15;;;1.40;99.90;;;;;;5043670;28;20033;-69
2022/03/06 01:27:20;;;;;;;31.15;18.63;;;1.40;99.90;;;;;;5035298;28;20037;-69
2022/03/06 01:29:45;;;;;;;29.70;18.25;;;1.40;99.90;;;;;;5035591;28;20381;-69
2022/03/06 01:32:11;;;;;;;34.10;19.05;;;1.40;99.90;;;;;;5053024;28;20021;-69
2022/03/06 01:34:37;;;;;;;32.15;18.73;;;1.40;99.90;;;;;;5039276;28;20025;-69
2022/03/06 01:37:02;;;;;;;27.88;16.20;;;1.40;99.90;;;;;;5042360;28;20166;-69
2022/03/06 01:39:28;;;;;;;29.52;16.83;;;1.40;99.90;;;;;;5037856;28;20024;-69
2022/03/06 01:41:54;;;;;;;31.40;17.42;;;1.40;99.90;;;;;;5039604;28;20116;-69
2022/03/06 01:44:19;;;;;;;29.83;18.15;;;1.40;99.90;;;;;;5034785;28;20119;-69
2022/03/06 01:46:47;;;;;;;27.83;17.25;;;1.50;99.90;;;;;;5043844;28;20029;-69
2022/03/06 01:49:13;;;;;;;29.23;17.90;;;1.50;99.90;;;;;;5045422;28;20036;-69
2022/03/06 01:51:39;;;;;;;31.92;18.63;;;1.40;99.90;;;;;;5039128;28;20037;-69
2022/03/06 01:54:05;;;;;;;28.27;17.38;;;1.40;99.90;;;;;;5040520;28;20029;-69
2022/03/06 01:56:30;;;;;;;32.28;18.33;;;1.30;99.90;;;;;;5042308;28;20104;-69
2022/03/06 01:58:58;;;;;;;30.05;18.23;;;1.30;99.90;;;;;;5040095;28;20603;-69
2022/03/06 02:01:24;;;;;;;30.45;17.38;;;1.30;99.90;;;;;;5037080;28;20103;-69
2022/03/06 02:03:50;;;;;;;31.88;18.20;;;1.20;99.90;;;;;;5032246;28;20037;-68
2022/03/06 02:06:19;;;;;;;29.58;17.13;;;1.30;99.90;;;;;;5042354;28;20090;-69
2022/03/06 02:08:46;;;;;;;32.10;18.05;;;1.20;99.90;;;;;;5034724;28;20029;-69
2022/03/06 02:11:12;;;;;;;29.13;17.63;;;1.20;99.90;;;;;;5042233;28;20397;-69
2022/03/06 02:13:38;;;;;;;29.73;17.30;;;1.20;99.90;;;;;;5035448;28;20032;-69
2022/03/06 02:16:05;;;;;;;31.52;18.02;;;1.20;99.90;;;;;;5040344;28;20118;-69
2022/03/06 02:18:31;;;;;;;27.42;16.65;;;1.20;99.90;;;;;;5046046;28;20033;-69
2022/03/06 02:20:57;;;;;;;29.65;17.70;;;1.10;99.90;;;;;;5044648;28;20027;-69
2022/03/06 02:23:24;;;;;;;29.08;16.58;;;1.10;99.90;;;;;;5053377;28;20151;-69
2022/03/06 02:25:49;;;;;;;34.13;17.63;;;1.10;99.90;;;;;;5041661;28;20027;-69
2022/03/06 02:28:15;;;;;;;30.23;17.27;;;1.10;99.90;;;;;;5041656;28;20025;-69
2022/03/06 02:30:42;;;;;;;30.27;18.02;;;1.10;99.90;;;;;;5039493;28;20043;-69
2022/03/06 02:33:10;;;;;;;29.40;17.15;;;1.10;99.90;;;;;;5037633;28;20094;-69
2022/03/06 02:35:36;;;;;;;29.85;17.58;;;1.10;99.90;;;;;;5030435;28;20021;-69
2022/03/06 02:38:03;;;;;;;27.75;17.02;;;1.10;99.90;;;;;;5040888;28;20022;-69
2022/03/06 02:40:29;;;;;;;28.70;17.50;;;1.00;99.90;;;;;;5038086;28;20041;-69
2022/03/06 02:42:55;;;;;;;33.72;19.08;;;1.00;99.90;;;;;;5031893;28;20045;-69
2022/03/06 02:45:25;;;;;;;29.55;18.48;;;1.00;99.90;;;;;;5040578;28;20110;-69
2022/03/06 02:47:53;;;;;;;30.27;18.05;;;1.00;99.90;;;;;;5037864;28;20541;-69
2022/03/06 02:50:22;;;;;;;31.80;19.02;;;1.00;99.90;;;;;;5039813;28;20409;-69
2022/03/06 02:52:51;;;;;;;30.55;17.88;;;1.00;99.90;;;;;;5036931;28;20072;-69
2022/03/06 02:55:17;;;;;;;33.35;18.88;;;1.00;99.90;;;;;;5039203;28;20037;-69
2022/03/06 02:57:43;;;;;;;31.98;19.58;;;0.90;99.90;;;;;;5039452;28;20020;-69
2022/03/06 03:00:11;;;;;;;30.02;18.42;;;0.90;99.90;;;;;;5037524;28;20044;-70
2022/03/06 03:02:38;;;;;;;32.15;19.50;;;0.90;99.90;;;;;;5044708;28;20029;-69
2022/03/06 03:05:05;;;;;;;30.60;18.52;;;0.90;99.90;;;;;;5042216;28;20041;-69
2022/03/06 03:07:31;;;;;;;31.90;18.27;;;0.90;99.90;;;;;;5043209;28;20025;-69
2022/03/06 03:09:57;;;;;;;30.45;18.83;;;0.90;99.90;;;;;;5037601;28;20036;-69
2022/03/06 03:12:23;;;;;;;29.98;18.13;;;0.80;99.90;;;;;;5037420;28;20043;-69
2022/03/06 03:14:48;;;;;;;30.98;19.27;;;0.80;99.90;;;;;;5033194;28;20078;-69
2022/03/06 03:17:14;;;;;;;29.63;17.55;;;0.80;99.90;;;;;;5037933;28;20086;-69
2022/03/06 03:19:40;;;;;;;29.83;18.13;;;0.80;99.90;;;;;;5042552;28;20079;-69
2022/03/06 03:22:05;;;;;;;31.63;18.92;;;0.90;99.90;;;;;;5041799;28;20025;-69
2022/03/06 03:24:31;;;;;;;26.70;17.38;;;0.80;99.90;;;;;;5042767;28;20033;-69
2022/03/06 03:26:56;;;;;;;29.83;17.55;;;0.90;99.90;;;;;;5037250;28;20064;-69
2022/03/06 03:29:22;;;;;;;31.65;18.50;;;0.80;99.90;;;;;;5044158;28;20770;-69
2022/03/06 03:31:48;;;;;;;31.13;18.05;;;0.80;99.90;;;;;;5032084;28;20120;-68
2022/03/06 03:34:14;;;;;;;27.95;17.77;;;0.90;99.90;;;;;;5039722;28;20045;-69
2022/03/06 03:36:40;;;;;;;30.48;17.83;;;0.90;99.90;;;;;;5043319;28;20026;-69
2022/03/06 03:39:06;;;;;;;27.75;17.38;;;0.90;99.90;;;;;;5036356;28;20038;-69
2022/03/06 03:41:32;;;;;;;30.15;18.30;;;0.90;99.90;;;;;;5042826;28;20033;-69
2022/03/06 03:43:58;;;;;;;30.50;18.58;;;0.90;99.90;;;;;;5030911;28;20048;-69
2022/03/06 03:46:23;;;;;;;31.25;18.17;;;0.80;99.90;;;;;;5037493;28;20087;-69
2022/03/06 03:48:49;;;;;;;27.90;17.25;;;0.80;99.90;;;;;;5038641;28;20028;-69
2022/03/06 03:51:15;;;;;;;29.40;18.33;;;0.80;99.90;;;;;;5043643;28;20029;-69
2022/03/06 03:53:41;;;;;;;31.15;17.58;;;0.80;99.90;;;;;;5032005;28;20546;-69
2022/03/06 03:56:06;;;;;;;31.80;18.60;;;0.80;99.90;;;;;;5041052;28;20071;-69
2022/03/06 03:58:35;;;;;;;30.48;19.05;;;0.70;99.90;;;;;;5044064;28;20083;-69
2022/03/06 04:01:01;;;;;;;31.15;18.20;;;0.70;99.90;;;;;;5034887;28;20021;-69
2022/03/06 04:03:27;;;;;;;29.05;17.70;;;0.70;99.90;;;;;;5035765;28;20044;-70
2022/03/06 04:05:53;;;;;;;30.20;17.88;;;0.60;99.90;;;;;;5041392;28;20529;-69
2022/03/06 04:08:18;;;;;;;30.80;17.90;;;0.60;99.90;;;;;;5039534;28;20017;-70
2022/03/06 04:10:45;;;;;;;27.95;17.50;;;0.70;99.90;;;;;;5036410;28;20108;-69
2022/03/06 04:13:11;;;;;;;30.58;18.30;;;0.60;99.90;;;;;;5038458;28;20104;-69
2022/03/06 04:15:37;;;;;;;30.52;18.60;;;0.60;99.90;;;;;;5036925;28;20104;-69
2022/03/06 04:18:03;;;;;;;29.75;18.38;;;0.60;99.90;;;;;;5040188;28;20507;-69
2022/03/06 04:20:29;;;;;;;28.95;18.45;;;0.60;99.90;;;;;;5041475;28;20468;-69
2022/03/06 04:22:55;;;;;;;31.30;18.90;;;0.60;99.90;;;;;;5041031;28;20025;-70
2022/03/06 04:25:21;;;;;;;32.88;18.70;;;0.50;99.90;;;;;;5042527;28;20032;-69
2022/03/06 04:27:46;;;;;;;29.65;18.10;;;0.50;99.90;;;;;;5035847;28;20022;-70
2022/03/06 04:30:12;;;;;;;31.77;18.90;;;0.50;99.90;;;;;;5041229;28;20025;-69
2022/03/06 04:32:38;;;;;;;32.10;18.85;;;0.40;99.90;;;;;;5036385;28;20094;-69
2022/03/06 04:35:05;;;;;;;32.30;19.38;;;0.40;99.90;;;;;;5039529;28;20052;-70
2022/03/06 04:37:30;;;;;;;28.95;18.98;;;0.40;99.90;;;;;;5035189;28;20025;-69
2022/03/06 04:39:56;;;;;;;30.85;18.33;;;0.40;99.90;;;;;;5029894;28;20025;-69
2022/03/06 04:42:22;;;;;;;31.30;18.52;;;0.40;99.90;;;;;;5034290;28;20398;-70
2022/03/06 04:44:48;;;;;;;29.20;18.05;;;0.40;99.90;;;;;;5038157;28;20047;-69
2022/03/06 04:47:13;;;;;;;28.88;17.58;;;0.40;99.90;;;;;;5039571;28;20033;-70
2022/03/06 04:49:40;;;;;;;28.73;17.38;;;0.40;99.90;;;;;;5039817;28;20029;-69
2022/03/06 04:52:06;;;;;;;28.23;17.77;;;0.40;99.90;;;;;;5035387;28;20024;-70
2022/03/06 04:54:31;;;;;;;28.27;17.70;;;0.40;99.90;;;;;;5032620;28;20025;-70
2022/03/06 04:56:57;;;;;;;26.73;16.67;;;0.40;99.90;;;;;;5043346;28;20742;-69
2022/03/06 04:59:23;;;;;;;27.67;17.02;;;0.40;99.90;;;;;;5044225;28;20036;-69
2022/03/06 05:01:48;;;;;;;28.73;17.80;;;0.40;99.90;;;;;;5037684;28;20033;-70
2022/03/06 05:04:14;;;;;;;27.88;17.60;;;0.40;99.90;;;;;;5036912;28;20025;-70
2022/03/06 05:06:40;;;;;;;27.13;17.70;;;0.40;99.90;;;;;;5044952;28;20025;-69
2022/03/06 05:09:06;;;;;;;27.25;17.42;;;0.40;99.90;;;;;;5047742;28;20031;-70
2022/03/06 05:11:33;;;;;;;29.52;17.70;;;0.40;99.90;;;;;;5036248;28;20040;-70
2022/03/06 05:13:58;;;;;;;29.45;16.88;;;0.40;99.90;;;;;;5035982;28;20033;-69
2022/03/06 05:16:24;;;;;;;27.08;17.50;;;0.40;99.90;;;;;;5045036;28;20333;-70
2022/03/06 05:18:49;;;;;;;27.67;17.92;;;0.30;99.90;;;;;;5045778;28;20029;-69
2022/03/06 05:21:15;;;;;;;27.02;17.10;;;0.40;99.90;;;;;;5042321;28;20020;-70
2022/03/06 05:23:41;;;;;;;28.42;17.20;;;0.40;99.90;;;;;;5041434;28;20031;-70
2022/03/06 05:26:07;;;;;;;27.48;16.50;;;0.30;99.90;;;;;;5044508;28;20610;-69
2022/03/06 05:28:33;;;;;;;26.63;16.38;;;0.30;99.90;;;;;;5044270;28;20032;-69
2022/03/06 05:30:58;;;;;;;30.42;17.73;;;0.30;99.90;;;;;;5046400;28;20021;-69
2022/03/06 05:33:24;;;;;;;32.35;18.20;;;0.30;99.90;;;;;;5034961;28;20393;-70
2022/03/06 05:35:50;;;;;;;26.45;16.60;;;0.30;99.90;;;;;;5046593;28;20116;-69
2022/03/06 05:38:15;;;;;;;33.10;18.50;;;0.30;99.90;;;;;;5040314;28;20111;-69
2022/03/06 05:40:41;;;;;;;27.23;17.60;;;0.30;99.90;;;;;;5040317;28;20027;-69
2022/03/06 05:43:07;;;;;;;30.92;17.40;;;0.30;99.90;;;;;;5037437;28;20052;-69
2022/03/06 05:45:33;;;;;;;28.25;17.70;;;0.30;99.90;;;;;;5045613;28;20017;-69
2022/03/06 05:47:58;;;;;;;27.42;16.92;;;0.30;99.90;;;;;;5035850;28;20506;-69
2022/03/06 05:50:24;;;;;;;25.02;16.40;;;0.30;99.90;;;;;;5027742;28;20037;-70
2022/03/06 05:52:50;;;;;;;28.63;17.73;;;0.30;99.90;;;;;;5019588;28;20029;-69
2022/03/06 05:55:16;;;;;;;26.80;17.20;;;0.30;99.90;;;;;;5023278;28;20041;-70
2022/03/06 05:57:42;;;;;;;29.48;17.67;;;0.40;99.90;;;;;;5026055;28;20482;-69
2022/03/06 06:00:08;;;;;;;28.02;17.77;;;0.40;99.90;;;;;;5026895;28;20029;-69
2022/03/06 06:02:35;;;;;;;28.90;17.15;;;0.30;99.90;;;;;;5042383;28;20052;-70
2022/03/06 06:05:05;;;;;;;28.95;17.67;;;0.30;99.90;;;;;;5035807;28;20108;-69
2022/03/06 06:07:31;;;;;;;28.50;18.33;;;0.40;99.90;;;;;;5025914;28;20112;-70
2022/03/06 06:09:57;;;;;;;30.98;17.70;;;0.40;99.90;;;;;;5020952;28;21932;-69
2022/03/06 06:12:23;;;;;;;32.15;18.27;;;0.40;99.90;;;;;;5020733;28;20029;-69
2022/03/06 06:14:48;;;;;;;28.20;17.20;;;0.40;99.90;;;;;;5024915;28;20499;-69
2022/03/06 06:17:14;;;;;;;29.63;18.95;;;0.40;99.90;;;;;;5028879;28;20504;-70
2022/03/06 06:19:40;;;;;;;27.50;17.63;;;0.40;99.90;;;;;;5024192;28;20026;-70
2022/03/06 06:22:05;;;;;;;33.80;19.25;;;0.40;99.90;;;;;;5021279;28;20108;-69
2022/03/06 06:24:31;;;;;;;28.20;17.85;;;0.40;99.90;;;;;;5021725;28;20397;-69
2022/03/06 06:26:57;;;;;;;29.92;18.40;;;0.40;99.90;;;;;;5026370;28;20030;-70
2022/03/06 06:29:23;;;;;;;30.60;17.38;;;0.40;99.90;;;;;;5025681;28;20029;-69
2022/03/06 06:31:51;;;;;;;29.20;17.38;;;0.40;99.90;;;;;;5024465;28;20062;-70
2022/03/06 06:34:17;;;;;;;30.45;18.05;;;0.40;99.90;;;;;;5037604;28;20033;-70
2022/03/06 06:36:43;;;;;;;26.60;17.73;;;0.40;99.90;;;;;;5046194;28;20059;-69
2022/03/06 06:39:12;;;;;;;31.25;19.35;;;0.40;99.90;;;;;;5027692;28;20285;-69
2022/03/06 06:41:41;;;;;;;29.00;18.77;;;0.40;99.90;;;;;;5025394;28;20471;-70
2022/03/06 06:44:08;;;;;;;28.73;18.55;;;0.30;99.90;;;;;;5025570;28;21611;-69
2022/03/06 06:46:34;;;;;;;29.65;17.92;;;0.40;99.90;;;;;;5022470;28;20116;-70
2022/03/06 06:49:00;;;;;;;31.70;18.77;;;0.40;99.90;;;;;;5027620;28;20061;-70
2022/03/06 06:51:27;;;;;;;29.23;18.65;;;0.40;99.90;;;;;;5024264;28;20869;-70
2022/03/06 06:53:53;;;;;;;31.55;18.95;;;0.40;99.90;;;;;;5020227;28;20426;-69
2022/03/06 06:56:19;;;;;;;30.30;18.38;;;0.40;99.90;;;;;;5039214;28;20036;-69
2022/03/06 06:58:44;;;;;;;31.95;18.70;;;0.40;99.90;;;;;;5025666;28;20161;-69
2022/03/06 07:01:10;;;;;;;30.30;18.88;;;0.50;99.90;;;;;;5029472;28;20025;-69
2022/03/06 07:03:36;;;;;;;29.13;18.83;;;0.50;99.90;;;;;;5023844;28;20439;-69
2022/03/06 07:06:01;;;;;;;27.23;17.75;;;0.50;99.90;;;;;;5026461;28;20465;-69
2022/03/06 07:08:27;;;;;;;28.45;18.73;;;0.50;99.90;;;;;;5039465;28;20440;-69
2022/03/06 07:10:52;;;;;;;31.20;19.00;;;0.60;99.90;;;;;;5038067;28;20033;-70
2022/03/06 07:13:18;;;;;;;29.88;18.27;;;0.60;99.90;;;;;;5020528;28;20075;-69
2022/03/06 07:15:44;;;;;;;28.75;17.70;;;0.70;99.90;;;;;;5037806;28;20025;-70
2022/03/06 07:18:09;;;;;;;28.92;18.30;;;0.70;99.90;;;;;;5040283;28;20477;-69
2022/03/06 07:20:35;;;;;;;30.65;18.33;;;0.80;99.90;;;;;;5033126;28;20033;-69
2022/03/06 07:23:00;;;;;;;30.05;18.42;;;0.80;99.90;;;;;;5030465;28;20048;-69
2022/03/06 07:25:26;;;;;;;29.23;18.48;;;1.00;99.90;;;;;;4683757;28;10000236;-71
2022/03/06 07:27:52;;;;;;;29.48;18.58;;;1.10;99.90;;;;;;5037294;28;20134;-69
2022/03/06 07:30:18;;;;;;;29.75;18.02;;;1.10;99.90;;;;;;5031039;28;20032;-69
2022/03/06 07:32:46;;;;;;;34.10;19.33;;;1.10;99.90;;;;;;5033926;28;20025;-69
2022/03/06 07:35:12;;;;;;;29.60;19.23;;;1.10;99.90;;;;;;5034435;28;20147;-69
2022/03/06 07:37:39;;;;;;;29.65;18.70;;;1.20;99.90;;;;;;5034121;28;20481;-70
2022/03/06 07:40:06;;;;;;;30.67;18.88;;;1.20;99.90;;;;;;5031673;28;20112;-70
2022/03/06 07:42:31;;;;;;;32.53;19.05;;;1.30;99.90;;;;;;5033598;28;20083;-69
2022/03/06 07:44:57;;;;;;;30.05;19.25;;;1.30;99.90;;;;;;5030683;28;20037;-70
2022/03/06 07:47:23;;;;;;;33.58;19.63;;;1.30;99.90;;;;;;5037365;28;20091;-69
2022/03/06 07:49:48;;;;;;;29.70;18.65;;;1.30;99.90;;;;;;5034111;28;20178;-69
2022/03/06 07:52:14;;;;;;;30.00;19.17;;;1.40;99.90;;;;;;5035562;28;20441;-69
2022/03/06 07:54:40;;;;;;;30.83;18.38;;;1.40;99.90;;;;;;5034336;28;20126;-70
2022/03/06 07:57:05;;;;;;;34.13;20.83;;;1.40;99.90;;;;;;5036350;28;20116;-69
2022/03/06 07:59:31;;;;;;;28.88;19.10;;;1.50;99.90;;;;;;5042270;28;20048;-70
2022/03/06 08:01:57;;;;;;;32.80;18.80;;;1.50;99.90;;;;;;5031139;28;20017;-70
2022/03/06 08:04:22;;;;;;;30.77;19.10;;;1.60;99.90;;;;;;5034314;28;20545;-69
2022/03/06 08:06:48;;;;;;;33.50;19.17;;;1.60;99.90;;;;;;5035861;28;20033;-70
2022/03/06 08:09:14;;;;;;;30.73;19.55;;;1.60;99.90;;;;;;5033069;28;20033;-70
2022/03/06 08:11:40;;;;;;;29.60;18.98;;;1.70;99.90;;;;;;5031155;28;20080;-72
2022/03/06 08:14:06;;;;;;;32.97;20.05;;;1.70;99.90;;;;;;5039717;28;20580;-70
2022/03/06 08:16:31;;;;;;;30.27;19.38;;;1.70;99.90;;;;;;5038721;28;20033;-72
2022/03/06 08:18:57;;;;;;;31.55;19.83;;;1.70;99.90;;;;;;5037934;28;20039;-70
2022/03/06 08:21:22;;;;;;;35.58;19.95;;;1.80;99.90;;;;;;5037937;28;20033;-71
2022/03/06 08:23:51;;;;;;;32.67;20.38;;;1.90;99.90;;;;;;5036067;28;20029;-72
2022/03/06 08:26:17;;;;;;;31.20;20.00;;;1.90;99.90;;;;;;5040014;28;20716;-72
2022/03/06 08:28:42;;;;;;;30.73;20.15;;;2.00;99.90;;;;;;5035635;28;20108;-72
2022/03/06 08:31:09;;;;;;;33.78;20.05;;;2.10;99.90;;;;;;5043114;28;20116;-73
2022/03/06 08:33:34;;;;;;;31.48;20.13;;;2.10;99.90;;;;;;5037788;28;20064;-71
2022/03/06 08:36:00;;;;;;;32.67;19.85;;;2.20;99.90;;;;;;5041504;28;20053;-70
2022/03/06 08:38:25;;;;;;;34.08;20.23;;;2.20;99.90;;;;;;5036674;28;20106;-69
2022/03/06 08:40:51;;;;;;;30.85;19.70;;;2.30;99.90;;;;;;5036847;28;20036;-72
2022/03/06 08:43:17;;;;;;;31.23;19.77;;;2.40;99.90;;;;;;5030799;28;20058;-75
2022/03/06 08:45:42;;;;;;;32.80;20.92;;;2.40;99.90;;;;;;5044208;28;20022;-75
2022/03/06 08:48:08;;;;;;;32.53;20.30;;;2.50;99.90;;;;;;5035157;28;20082;-75
2022/03/06 08:50:33;;;;;;;31.48;19.30;;;2.60;99.90;;;;;;5034283;28;20025;-74
2022/03/06 08:52:59;;;;;;;32.35;19.13;;;2.60;99.90;;;;;;5033526;28;20033;-75
2022/03/06 08:55:24;;;;;;;29.98;19.10;;;2.70;99.90;;;;;;5036204;28;20040;-74
2022/03/06 08:57:50;;;;;;;30.48;19.75;;;2.80;99.90;;;;;;5046685;28;20060;-74
2022/03/06 09:00:16;;;;;;;34.15;20.95;;;2.80;99.90;;;;;;5045850;28;20017;-74
2022/03/06 09:02:41;;;;;;;29.80;19.73;;;2.90;99.90;;;;;;5032943;28;20017;-74
2022/03/06 09:05:07;;;;;;;31.38;20.27;;;3.00;99.90;;;;;;5040780;28;21315;-74
2022/03/06 09:07:33;;;;;;;32.10;19.63;;;3.00;99.90;;;;;;5037728;28;20405;-74
2022/03/06 09:09:58;;;;;;;30.35;19.90;;;3.20;99.90;;;;;;5044951;28;20026;-74
2022/03/06 09:12:26;;;;;;;32.80;19.67;;;3.30;99.90;;;;;;5040521;28;20061;-74
2022/03/06 09:14:52;;;;;;;32.13;19.92;;;3.40;99.90;;;;;;5036722;28;20722;-75
2022/03/06 09:17:19;;;;;;;32.97;19.77;;;3.50;99.90;;;;;;5033608;28;20497;-74
2022/03/06 09:19:44;;;;;;;31.55;19.77;;;3.50;99.90;;;;;;5034279;28;20545;-74
2022/03/06 09:22:10;;;;;;;33.05;20.40;;;3.50;99.90;;;;;;5043243;28;20028;-74
2022/03/06 09:24:35;;;;;;;29.75;19.90;;;3.60;99.90;;;;;;5041665;28;20509;-74
2022/03/06 09:27:01;;;;;;;32.35;19.98;;;3.60;99.90;;;;;;5042204;28;20111;-75
2022/03/06 09:29:27;;;;;;;32.75;20.40;;;3.60;99.90;;;;;;5038931;28;20021;-74
2022/03/06 09:31:53;;;;;;;29.95;19.48;;;3.70;99.90;;;;;;5037998;28;20037;-75
2022/03/06 09:34:18;;;;;;;29.98;20.05;;;3.70;99.90;;;;;;5029172;28;20489;-74
2022/03/06 09:36:44;;;;;;;32.40;20.15;;;3.70;99.90;;;;;;5036371;28;20025;-74
2022/03/06 09:39:10;;;;;;;33.88;20.52;;;3.80;99.90;;;;;;5043593;28;20473;-75
2022/03/06 09:41:38;;;;;;;33.63;20.75;;;3.90;99.90;;;;;;5039960;28;20063;-74
2022/03/06 09:44:07;;;;;;;31.75;19.48;;;3.90;99.90;;;;;;5038736;28;20052;-74
2022/03/06 09:46:37;;;;;;;32.35;20.75;;;3.90;99.90;;;;;;5040582;28;20029;-74
2022/03/06 09:49:05;;;;;;;30.08;20.05;;;4.00;99.90;;;;;;5040869;28;20542;-76
2022/03/06 09:51:39;;;;;;;30.90;19.90;;;4.00;99.90;;;;;;5036678;28;20065;-73
2022/03/06 09:54:06;;;;;;;29.83;19.80;;;4.00;99.90;;;;;;5039925;28;20260;-73
2022/03/06 09:56:32;;;;;;;30.30;19.67;;;4.10;99.90;;;;;;5041282;28;20233;-74
2022/03/06 09:58:57;;;;;;;29.05;19.02;;;4.10;99.90;;;;;;5032478;28;20541;-73
2022/03/06 10:01:23;;;;;;;30.30;20.58;;;4.10;99.90;;;;;;5044212;28;20261;-73
2022/03/06 10:03:49;;;;;;;29.10;19.75;;;4.20;99.90;;;;;;5034890;28;20489;-73
2022/03/06 10:06:14;;;;;;;26.95;18.73;;;4.40;99.90;;;;;;5041266;28;20025;-73
2022/03/06 10:08:40;;;;;;;28.90;19.20;;;4.40;99.90;;;;;;5032668;28;20035;-73
2022/03/06 10:11:09;;;;;;;29.25;19.25;;;4.50;99.90;;;;;;5042178;28;20056;-73
2022/03/06 10:13:45;;;;;;;31.05;19.02;;;4.60;99.90;;;;;;5030449;28;20033;-72
2022/03/06 10:16:23;;;;;;;29.77;19.10;;;4.60;99.90;;;;;;5035004;28;20115;-72
2022/03/06 10:18:51;;;;;;;29.00;18.92;;;4.70;99.90;;;;;;5027369;28;20397;-72
2022/03/06 10:21:21;;;;;;;27.67;18.42;;;4.70;99.90;;;;;;5035606;28;20200;-74
2022/03/06 10:23:53;;;;;;;26.58;17.73;;;4.60;99.90;;;;;;5030453;28;20029;-74
2022/03/06 10:26:24;;;;;;;26.20;18.30;;;4.60;99.90;;;;;;5034064;28;20039;-74
2022/03/06 10:28:56;;;;;;;25.90;16.88;;;4.70;99.90;;;;;;5035509;28;20706;-74
2022/03/06 10:31:24;;;;;;;19.20;12.63;;;4.70;99.90;;;;;;5036290;28;20064;-72
2022/03/06 10:34:09;;;;;;;25.48;16.85;;;4.70;99.90;;;;;;5037029;28;20291;-73
2022/03/06 10:36:45;;;;;;;27.27;17.00;;;4.70;99.90;;;;;;5035529;28;20087;-72
2022/03/06 10:39:22;;;;;;;23.52;15.77;;;4.80;99.90;;;;;;5034773;28;20035;-71
2022/03/06 10:41:52;;;;;;;21.80;15.85;;;4.80;99.90;;;;;;5038850;28;20570;-71
2022/03/06 10:44:19;;;;;;;23.20;14.60;;;4.90;99.90;;;;;;5040587;28;20048;-72
2022/03/06 10:47:04;;;;;;;22.20;14.38;;;4.90;99.90;;;;;;5039120;28;20060;-72
2022/03/06 10:49:32;;;;;;;20.67;12.73;;;4.80;99.90;;;;;;5040526;28;20033;-72
2022/03/06 10:52:15;;;;;;;16.80;10.95;;;4.80;99.90;;;;;;5045132;28;20283;-72
2022/03/06 10:54:52;;;;;;;17.83;11.90;;;4.70;99.10;;;;;;5030342;28;20032;-72
2022/03/06 10:57:18;;;;;;;14.75;9.80;;;4.70;99.00;;;;;;5031811;28;20096;-72
2022/03/06 10:59:44;;;;;;;13.55;9.98;;;4.70;97.80;;;;;;5036783;28;20032;-71
2022/03/06 11:02:12;;;;;;;14.10;10.13;;;4.70;95.40;;;;;;5033855;28;20036;-71
2022/03/06 11:04:38;;;;;;;13.25;9.40;;;4.70;96.90;;;;;;5034347;28;20032;-72
2022/03/06 11:07:04;;;;;;;12.90;9.23;;;4.70;96.10;;;;;;5030487;28;20032;-72
2022/03/06 11:09:30;;;;;;;12.10;8.63;;;4.70;93.90;;;;;;5033129;28;20045;-71
2022/03/06 11:11:56;;;;;;;11.32;8.00;;;4.70;93.80;;;;;;5027200;28;20032;-71
2022/03/06 11:14:22;;;;;;;13.75;10.20;;;4.80;92.90;;;;;;5034514;28;20043;-71
2022/03/06 11:16:48;;;;;;;17.35;11.00;;;4.80;94.60;;;;;;5037374;28;20021;-72
2022/03/06 11:19:14;;;;;;;14.93;10.50;;;4.80;95.30;;;;;;5035172;28;20112;-72
2022/03/06 11:21:42;;;;;;;12.43;9.40;;;4.70;93.70;;;;;;5027387;28;20616;-74
2022/03/06 11:24:12;;;;;;;13.13;9.50;;;4.70;93.30;;;;;;5031979;28;20029;-72
2022/03/06 11:27:01;;;;;;;12.50;9.60;;;4.70;92.40;;;;;;5029970;28;20075;-72
2022/03/06 11:30:06;;;;;;;13.38;8.73;;;4.70;92.20;;;;;;5033587;28;20029;-72
2022/03/06 11:32:35;;;;;;;12.55;9.15;;;4.80;92.00;;;;;;5028589;28;20115;-72
2022/03/06 11:35:10;;;;;;;12.32;8.80;;;4.90;91.70;;;;;;5031677;28;20679;-73
2022/03/06 11:37:57;;;;;;;13.10;10.15;;;5.00;90.60;;;;;;5028374;28;20128;-75
2022/03/06 11:40:45;;;;;;;12.38;9.88;;;5.00;91.80;;;;;;5033389;28;20025;-75
2022/03/06 11:43:33;;;;;;;14.15;9.23;;;4.90;93.60;;;;;;5023967;28;20041;-73
2022/03/06 11:45:58;;;;;;;15.35;10.45;;;4.80;92.10;;;;;;5030114;28;21339;-73
2022/03/06 11:48:25;;;;;;;14.13;10.23;;;4.70;91.80;;;;;;5037372;28;21971;-73
2022/03/06 11:51:12;;;;;;;15.60;10.65;;;4.70;93.00;;;;;;5030828;28;20021;-74
2022/03/06 11:53:47;;;;;;;14.32;9.98;;;4.70;93.40;;;;;;5030970;28;20175;-73
2022/03/06 11:56:32;;;;;;;14.57;10.85;;;4.70;92.50;;;;;;5029587;28;20768;-72
2022/03/06 11:59:07;;;;;;;16.85;11.15;;;4.60;91.50;;;;;;5027816;28;20477;-72
2022/03/06 12:01:44;;;;;;;18.70;11.90;;;4.60;93.00;;;;;;5032487;28;20025;-73
2022/03/06 12:04:15;;;;;;;14.95;10.75;;;4.70;93.30;;;;;;5026053;28;20144;-73
2022/03/06 12:06:49;;;;;;;16.63;11.10;;;4.60;91.40;;;;;;5029839;28;20124;-73
2022/03/06 12:09:23;;;;;;;15.27;10.60;;;4.50;90.90;;;;;;5028983;28;20677;-73
2022/03/06 12:11:51;;;;;;;14.85;11.13;;;4.60;91.10;;;;;;5033156;28;20036;-73
2022/03/06 12:14:20;;;;;;;17.52;10.98;;;4.60;91.20;;;;;;5031240;28;20108;-73
2022/03/06 12:17:02;;;;;;;16.05;11.18;;;4.60;91.00;;;;;;5032202;28;20401;-72
2022/03/06 12:19:47;;;;;;;17.73;11.40;;;4.70;90.70;;;;;;5030086;28;20024;-72
2022/03/06 12:22:28;;;;;;;14.60;10.80;;;4.70;91.80;;;;;;5025542;28;20036;-74
2022/03/06 12:25:06;;;;;;;17.45;11.80;;;4.70;91.70;;;;;;5030877;28;20029;-72
2022/03/06 12:27:33;;;;;;;19.20;12.50;;;4.60;91.20;;;;;;5018072;28;20037;-72
2022/03/06 12:30:01;;;;;;;15.75;11.38;;;4.60;92.80;;;;;;5033750;28;20032;-72
2022/03/06 12:32:26;;;;;;;18.50;12.18;;;4.50;91.60;;;;;;5030286;28;20040;-72
2022/03/06 12:34:56;;;;;;;17.05;12.70;;;4.40;92.90;;;;;;5035245;28;20121;-72
2022/03/06 12:37:29;;;;;;;18.45;13.25;;;4.40;94.30;;;;;;5031071;28;20025;-72
2022/03/06 12:39:55;;;;;;;19.88;13.13;;;4.40;94.70;;;;;;5029551;28;20025;-72